Iona Mcallister — WDD4840 — position and weather

sailwx.info

Track history (hours):
 
Tides and Currents Weather Stations Pressure Air Temp Water Temp Dewpoint Dewpoint Depression Visibility Wind Speed Wind Dir Waves Ship Positions

Iona Mcallister

Owner: McAllister Towing & Transportation Co. Inc., Staten Island, NY. More information available from US FCC via Universal Licensing System and Coast Guard Vessel Documentation Center.

Last reported at 2016-Jul-02 01:33 UTC. Time now 2016-Jul-02 02:18 UTC.
Position N 41°49' W 071°24'.

Length 36 m; draft 3 m.

Type: Towing. MMSI: 367149890.

Date/timePositionNaut miles runAvg speedWind from/ knotsBaromVisibWave heightAir tempDewpointWater temp
2016-Jul-02 01:33N 41°49' W 071°24'0 0.3
2016-Jul-02 00:32N 41°49' W 071°24'1 0.2
2016-Jul-01 18:24N 41°48' W 071°23'0 0.2
2016-Jul-01 17:33N 41°48' W 071°23'1 1.4
2016-Jul-01 16:33N 41°49' W 071°24'0 0.0
2016-Jul-01 12:33N 41°49' W 071°24'0 0.0
2016-Jul-01 11:33N 41°49' W 071°24'0 0.0
2016-Jul-01 10:33N 41°49' W 071°24'0 0.0
2016-Jul-01 09:33N 41°49' W 071°24'0 0.0
2016-Jul-01 08:33N 41°49' W 071°24'0 0.0
2016-Jul-01 07:33N 41°49' W 071°24'0 0.0
2016-Jul-01 06:33N 41°49' W 071°24'0 0.0
2016-Jul-01 05:33N 41°49' W 071°24'0 0.0
2016-Jul-01 04:33N 41°49' W 071°24'2 2.3
2016-Jul-01 03:32N 41°47' W 071°22'7 7.4
2016-Jul-01 02:33N 41°40' W 071°22'3 3.1
2016-Jul-01 01:33N 41°37' W 071°24'0 0.0
2016-Jul-01 00:31N 41°37' W 071°24'7 0.3
2016-Jun-30 01:27N 41°30' W 071°21'9 9.9
2016-Jun-30 00:33N 41°38' W 071°18'9 9.3
2016-Jun-29 23:33N 41°47' W 071°23'2 2.1
2016-Jun-29 22:33N 41°49' W 071°24'0 0.0
2016-Jun-29 21:04N 41°49' W 071°24'0 0.0
2016-Jun-29 18:13N 41°49' W 071°24'0 0.0
2016-Jun-29 17:31N 41°49' W 071°24'0 0.0
2016-Jun-29 15:33N 41°49' W 071°24'0 0.0
2016-Jun-29 14:33N 41°49' W 071°24'0 0.0
2016-Jun-29 13:33N 41°49' W 071°24'0 0.0
2016-Jun-29 12:33N 41°49' W 071°24'1 1.0
2016-Jun-29 11:20N 41°48' W 071°23'0 0.2
2016-Jun-29 09:34N 41°48' W 071°23'1 0.9
2016-Jun-29 08:33N 41°49' W 071°24'0 0.0
2016-Jun-29 07:33N 41°49' W 071°24'0 0.0
2016-Jun-29 06:33N 41°49' W 071°24'0 0.0
2016-Jun-29 05:33N 41°49' W 071°24'0 0.0
2016-Jun-29 04:33N 41°49' W 071°24'0 0.0
2016-Jun-29 03:34N 41°49' W 071°24'0 0.0
2016-Jun-29 02:32N 41°49' W 071°24'0 0.0
2016-Jun-29 01:32N 41°49' W 071°24'0 0.0
2016-Jun-29 00:33N 41°49' W 071°24'0 0.0
2016-Jun-28 23:30N 41°49' W 071°24'0 0.0
2016-Jun-28 22:33N 41°49' W 071°24'0 0.0
2016-Jun-28 21:32N 41°49' W 071°24'0 0.0
2016-Jun-28 20:20N 41°49' W 071°24'0 0.0
2016-Jun-28 19:30N 41°49' W 071°24'0 0.0
2016-Jun-28 18:33N 41°49' W 071°24'0 0.0
2016-Jun-28 17:19N 41°49' W 071°24'0 0.0
2016-Jun-28 16:33N 41°49' W 071°24'0 0.0
2016-Jun-28 15:33N 41°49' W 071°24'0 0.0
2016-Jun-28 14:32N 41°49' W 071°24'0 0.0
2016-Jun-28 13:33N 41°49' W 071°24'0 0.0
2016-Jun-28 12:33N 41°49' W 071°24'0 0.0
2016-Jun-28 11:33N 41°49' W 071°24'0 0.0
2016-Jun-28 10:07N 41°49' W 071°24'1 0.1
2016-Jun-27 23:19N 41°48' W 071°24'1 0.8
2016-Jun-27 21:32N 41°47' W 071°23'3 2.9
2016-Jun-27 20:32N 41°44' W 071°22'7 7.1
2016-Jun-27 19:30N 41°37' W 071°23'1 0.1
2016-Jun-27 13:32N 41°37' W 071°24'0 0.0
2016-Jun-27 12:34N 41°37' W 071°24'0 0.0
2016-Jun-27 11:33N 41°37' W 071°24'0 0.0
2016-Jun-27 10:28N 41°37' W 071°24'2 1.8
2016-Jun-27 09:33N 41°35' W 071°24'5 5.5
2016-Jun-27 08:33N 41°40' W 071°21'7 6.7
2016-Jun-27 07:33N 41°47' W 071°22'1 1.2
2016-Jun-27 06:28N 41°48' W 071°23'1 1.1
2016-Jun-27 05:33N 41°49' W 071°24'0 0.0
2016-Jun-27 04:33N 41°49' W 071°24'0 0.0
2016-Jun-27 03:33N 41°49' W 071°24'0 0.0
2016-Jun-27 02:33N 41°49' W 071°24'0 0.0
2016-Jun-27 01:33N 41°49' W 071°24'0 0.0
2016-Jun-27 00:33N 41°49' W 071°24'2 1.7
2016-Jun-26 23:30N 41°47' W 071°23'1 1.2
2016-Jun-26 22:33N 41°48' W 071°24'1 0.7
2016-Jun-26 21:33N 41°49' W 071°24'0 0.0
2016-Jun-26 18:33N 41°49' W 071°24'0 0.0
2016-Jun-26 17:33N 41°49' W 071°24'0 0.0
2016-Jun-26 16:33N 41°49' W 071°24'0 0.0
2016-Jun-26 15:33N 41°49' W 071°24'0 0.0
2016-Jun-26 14:33N 41°49' W 071°24'0 0.0
2016-Jun-26 13:33N 41°49' W 071°24'0 0.0
2016-Jun-26 12:33N 41°49' W 071°24'0 0.0
2016-Jun-26 11:34N 41°49' W 071°24'0 0.0
2016-Jun-26 10:33N 41°49' W 071°24'0 0.0
2016-Jun-26 09:33N 41°49' W 071°24'0 0.0
2016-Jun-26 08:33N 41°49' W 071°24'0 0.0
2016-Jun-26 07:33N 41°49' W 071°24'0 0.0
2016-Jun-26 06:33N 41°49' W 071°24'0 0.0
2016-Jun-26 05:33N 41°49' W 071°24'0 0.0
2016-Jun-26 04:33N 41°49' W 071°24'0 0.0
2016-Jun-26 03:33N 41°49' W 071°24'0 0.0
2016-Jun-26 02:33N 41°49' W 071°24'0 0.0
2016-Jun-26 01:33N 41°49' W 071°24'0 0.0
2016-Jun-26 00:33N 41°49' W 071°24'1 0.7
2016-Jun-25 23:22N 41°48' W 071°24'0 0.5
2016-Jun-25 22:31N 41°48' W 071°23'0 0.2
2016-Jun-25 20:32N 41°48' W 071°24'1 0.7
2016-Jun-25 19:15N 41°49' W 071°24'0 0.0
2016-Jun-25 18:33N 41°49' W 071°24'0 0.0
2016-Jun-25 17:33N 41°49' W 071°24'0 0.0
2016-Jun-25 16:34N 41°49' W 071°24'0 0.0
2016-Jun-25 15:32N 41°49' W 071°24'0 0.0
2016-Jun-25 14:33N 41°49' W 071°24'0 0.0
2016-Jun-25 13:33N 41°49' W 071°24'2 2.4
2016-Jun-25 12:33N 41°47' W 071°22'2 1.6
2016-Jun-25 11:33N 41°48' W 071°23'1 0.8
2016-Jun-25 10:33N 41°49' W 071°24'0 0.0
2016-Jun-25 09:31N 41°49' W 071°24'0 0.0
2016-Jun-25 08:33N 41°49' W 071°24'0 0.0
2016-Jun-25 07:25N 41°49' W 071°24'0 0.0
2016-Jun-25 06:33N 41°49' W 071°24'0 0.0
2016-Jun-25 05:33N 41°49' W 071°24'0 0.0
2016-Jun-25 04:33N 41°49' W 071°24'0 0.0
2016-Jun-25 03:33N 41°49' W 071°24'0 0.0
2016-Jun-25 02:33N 41°49' W 071°24'0 0.0
2016-Jun-25 01:33N 41°49' W 071°24'0 0.0
2016-Jun-25 00:31N 41°49' W 071°24'2 2.4
2016-Jun-24 23:33N 41°47' W 071°22'1 0.5
2016-Jun-24 22:33N 41°47' W 071°23'0 0.0
2016-Jun-24 21:33N 41°47' W 071°23'0 0.0
2016-Jun-24 20:33N 41°47' W 071°23'1 0.6
2016-Jun-24 19:33N 41°47' W 071°22'2 2.2
2016-Jun-24 18:29N 41°49' W 071°24'0 0.0
2016-Jun-24 17:33N 41°49' W 071°24'0 0.0
2016-Jun-24 16:33N 41°49' W 071°24'0 0.0
2016-Jun-24 15:33N 41°49' W 071°24'0 0.0
2016-Jun-24 14:33N 41°49' W 071°24'0 0.0
2016-Jun-24 13:33N 41°49' W 071°24'0 0.0
2016-Jun-24 12:33N 41°49' W 071°24'0 0.0
2016-Jun-24 11:33N 41°49' W 071°24'0 0.0
2016-Jun-24 10:33N 41°49' W 071°24'0 0.0
2016-Jun-24 09:33N 41°49' W 071°24'0 0.0
2016-Jun-24 08:33N 41°49' W 071°24'1 0.9
2016-Jun-24 07:33N 41°48' W 071°24'2 2.1
2016-Jun-24 06:33N 41°46' W 071°22'16 1.1
2016-Jun-23 15:20N 41°30' W 071°21'7 8.6
2016-Jun-23 14:33N 41°36' W 071°24'1 0.2
2016-Jun-23 11:28N 41°37' W 071°24'2 0.2
2016-Jun-23 03:05N 41°35' W 071°25'  
Track history (hours):
 
Tides and Currents Weather Stations Pressure Air Temp Water Temp Dewpoint Dewpoint Depression Visibility Wind Speed Wind Dir Waves Ship Positions

Iona Mcallister

Owner: McAllister Towing & Transportation Co. Inc., Staten Island, NY. More information available from US FCC via Universal Licensing System and Coast Guard Vessel Documentation Center.

Last reported at 2016-Jul-02 01:33 UTC. Time now 2016-Jul-02 02:18 UTC.
Position N 41°49' W 071°24'.

Length 36 m; draft 3 m.

Type: Towing. MMSI: 367149890.

Date/timePositionNaut miles runAvg speedWind from/ knotsBaromVisibWave heightAir tempDewpointWater temp
2016-Jul-02 01:33N 41°49' W 071°24'0 0.3
2016-Jul-02 00:32N 41°49' W 071°24'1 0.2
2016-Jul-01 18:24N 41°48' W 071°23'0 0.2
2016-Jul-01 17:33N 41°48' W 071°23'1 1.4
2016-Jul-01 16:33N 41°49' W 071°24'0 0.0
2016-Jul-01 12:33N 41°49' W 071°24'0 0.0
2016-Jul-01 11:33N 41°49' W 071°24'0 0.0
2016-Jul-01 10:33N 41°49' W 071°24'0 0.0
2016-Jul-01 09:33N 41°49' W 071°24'0 0.0
2016-Jul-01 08:33N 41°49' W 071°24'0 0.0
2016-Jul-01 07:33N 41°49' W 071°24'0 0.0
2016-Jul-01 06:33N 41°49' W 071°24'0 0.0
2016-Jul-01 05:33N 41°49' W 071°24'0 0.0
2016-Jul-01 04:33N 41°49' W 071°24'2 2.3
2016-Jul-01 03:32N 41°47' W 071°22'7 7.4
2016-Jul-01 02:33N 41°40' W 071°22'3 3.1
2016-Jul-01 01:33N 41°37' W 071°24'0 0.0
2016-Jul-01 00:31N 41°37' W 071°24'7 0.3
2016-Jun-30 01:27N 41°30' W 071°21'9 9.9
2016-Jun-30 00:33N 41°38' W 071°18'9 9.3
2016-Jun-29 23:33N 41°47' W 071°23'2 2.1
2016-Jun-29 22:33N 41°49' W 071°24'0 0.0
2016-Jun-29 21:04N 41°49' W 071°24'0 0.0
2016-Jun-29 18:13N 41°49' W 071°24'0 0.0
2016-Jun-29 17:31N 41°49' W 071°24'0 0.0
2016-Jun-29 15:33N 41°49' W 071°24'0 0.0
2016-Jun-29 14:33N 41°49' W 071°24'0 0.0
2016-Jun-29 13:33N 41°49' W 071°24'0 0.0
2016-Jun-29 12:33N 41°49' W 071°24'1 1.0
2016-Jun-29 11:20N 41°48' W 071°23'0 0.2
2016-Jun-29 09:34N 41°48' W 071°23'1 0.9
2016-Jun-29 08:33N 41°49' W 071°24'0 0.0
2016-Jun-29 07:33N 41°49' W 071°24'0 0.0
2016-Jun-29 06:33N 41°49' W 071°24'0 0.0
2016-Jun-29 05:33N 41°49' W 071°24'0 0.0
2016-Jun-29 04:33N 41°49' W 071°24'0 0.0
2016-Jun-29 03:34N 41°49' W 071°24'0 0.0
2016-Jun-29 02:32N 41°49' W 071°24'0 0.0
2016-Jun-29 01:32N 41°49' W 071°24'0 0.0
2016-Jun-29 00:33N 41°49' W 071°24'0 0.0
2016-Jun-28 23:30N 41°49' W 071°24'0 0.0
2016-Jun-28 22:33N 41°49' W 071°24'0 0.0
2016-Jun-28 21:32N 41°49' W 071°24'0 0.0
2016-Jun-28 20:20N 41°49' W 071°24'0 0.0
2016-Jun-28 19:30N 41°49' W 071°24'0 0.0
2016-Jun-28 18:33N 41°49' W 071°24'0 0.0
2016-Jun-28 17:19N 41°49' W 071°24'0 0.0
2016-Jun-28 16:33N 41°49' W 071°24'0 0.0
2016-Jun-28 15:33N 41°49' W 071°24'0 0.0
2016-Jun-28 14:32N 41°49' W 071°24'0 0.0
2016-Jun-28 13:33N 41°49' W 071°24'0 0.0
2016-Jun-28 12:33N 41°49' W 071°24'0 0.0
2016-Jun-28 11:33N 41°49' W 071°24'0 0.0
2016-Jun-28 10:07N 41°49' W 071°24'1 0.1
2016-Jun-27 23:19N 41°48' W 071°24'1 0.8
2016-Jun-27 21:32N 41°47' W 071°23'3 2.9
2016-Jun-27 20:32N 41°44' W 071°22'7 7.1
2016-Jun-27 19:30N 41°37' W 071°23'1 0.1
2016-Jun-27 13:32N 41°37' W 071°24'0 0.0
2016-Jun-27 12:34N 41°37' W 071°24'0 0.0
2016-Jun-27 11:33N 41°37' W 071°24'0 0.0
2016-Jun-27 10:28N 41°37' W 071°24'2 1.8
2016-Jun-27 09:33N 41°35' W 071°24'5 5.5
2016-Jun-27 08:33N 41°40' W 071°21'7 6.7
2016-Jun-27 07:33N 41°47' W 071°22'1 1.2
2016-Jun-27 06:28N 41°48' W 071°23'1 1.1
2016-Jun-27 05:33N 41°49' W 071°24'0 0.0
2016-Jun-27 04:33N 41°49' W 071°24'0 0.0
2016-Jun-27 03:33N 41°49' W 071°24'0 0.0
2016-Jun-27 02:33N 41°49' W 071°24'0 0.0
2016-Jun-27 01:33N 41°49' W 071°24'0 0.0
2016-Jun-27 00:33N 41°49' W 071°24'2 1.7
2016-Jun-26 23:30N 41°47' W 071°23'1 1.2
2016-Jun-26 22:33N 41°48' W 071°24'1 0.7
2016-Jun-26 21:33N 41°49' W 071°24'0 0.0
2016-Jun-26 18:33N 41°49' W 071°24'0 0.0
2016-Jun-26 17:33N 41°49' W 071°24'0 0.0
2016-Jun-26 16:33N 41°49' W 071°24'0 0.0
2016-Jun-26 15:33N 41°49' W 071°24'0 0.0
2016-Jun-26 14:33N 41°49' W 071°24'0 0.0
2016-Jun-26 13:33N 41°49' W 071°24'0 0.0
2016-Jun-26 12:33N 41°49' W 071°24'0 0.0
2016-Jun-26 11:34N 41°49' W 071°24'0 0.0
2016-Jun-26 10:33N 41°49' W 071°24'0 0.0
2016-Jun-26 09:33N 41°49' W 071°24'0 0.0
2016-Jun-26 08:33N 41°49' W 071°24'0 0.0
2016-Jun-26 07:33N 41°49' W 071°24'0 0.0
2016-Jun-26 06:33N 41°49' W 071°24'0 0.0
2016-Jun-26 05:33N 41°49' W 071°24'0 0.0
2016-Jun-26 04:33N 41°49' W 071°24'0 0.0
2016-Jun-26 03:33N 41°49' W 071°24'0 0.0
2016-Jun-26 02:33N 41°49' W 071°24'0 0.0
2016-Jun-26 01:33N 41°49' W 071°24'0 0.0
2016-Jun-26 00:33N 41°49' W 071°24'1 0.7
2016-Jun-25 23:22N 41°48' W 071°24'0 0.5
2016-Jun-25 22:31N 41°48' W 071°23'0 0.2
2016-Jun-25 20:32N 41°48' W 071°24'1 0.7
2016-Jun-25 19:15N 41°49' W 071°24'0 0.0
2016-Jun-25 18:33N 41°49' W 071°24'0 0.0
2016-Jun-25 17:33N 41°49' W 071°24'0 0.0
2016-Jun-25 16:34N 41°49' W 071°24'0 0.0
2016-Jun-25 15:32N 41°49' W 071°24'0 0.0
2016-Jun-25 14:33N 41°49' W 071°24'0 0.0
2016-Jun-25 13:33N 41°49' W 071°24'2 2.4
2016-Jun-25 12:33N 41°47' W 071°22'2 1.6
2016-Jun-25 11:33N 41°48' W 071°23'1 0.8
2016-Jun-25 10:33N 41°49' W 071°24'0 0.0
2016-Jun-25 09:31N 41°49' W 071°24'0 0.0
2016-Jun-25 08:33N 41°49' W 071°24'0 0.0
2016-Jun-25 07:25N 41°49' W 071°24'0 0.0
2016-Jun-25 06:33N 41°49' W 071°24'0 0.0
2016-Jun-25 05:33N 41°49' W 071°24'0 0.0
2016-Jun-25 04:33N 41°49' W 071°24'0 0.0
2016-Jun-25 03:33N 41°49' W 071°24'0 0.0
2016-Jun-25 02:33N 41°49' W 071°24'0 0.0
2016-Jun-25 01:33N 41°49' W 071°24'0 0.0
2016-Jun-25 00:31N 41°49' W 071°24'2 2.4
2016-Jun-24 23:33N 41°47' W 071°22'1 0.5
2016-Jun-24 22:33N 41°47' W 071°23'0 0.0
2016-Jun-24 21:33N 41°47' W 071°23'0 0.0
2016-Jun-24 20:33N 41°47' W 071°23'1 0.6
2016-Jun-24 19:33N 41°47' W 071°22'2 2.2
2016-Jun-24 18:29N 41°49' W 071°24'0 0.0
2016-Jun-24 17:33N 41°49' W 071°24'0 0.0
2016-Jun-24 16:33N 41°49' W 071°24'0 0.0
2016-Jun-24 15:33N 41°49' W 071°24'0 0.0
2016-Jun-24 14:33N 41°49' W 071°24'0 0.0
2016-Jun-24 13:33N 41°49' W 071°24'0 0.0
2016-Jun-24 12:33N 41°49' W 071°24'0 0.0
2016-Jun-24 11:33N 41°49' W 071°24'0 0.0
2016-Jun-24 10:33N 41°49' W 071°24'0 0.0
2016-Jun-24 09:33N 41°49' W 071°24'0 0.0
2016-Jun-24 08:33N 41°49' W 071°24'1 0.9
2016-Jun-24 07:33N 41°48' W 071°24'2 2.1
2016-Jun-24 06:33N 41°46' W 071°22'16 1.1
2016-Jun-23 15:20N 41°30' W 071°21'7 8.6
2016-Jun-23 14:33N 41°36' W 071°24'1 0.2
2016-Jun-23 11:28N 41°37' W 071°24'2 0.2
2016-Jun-23 03:05N 41°35' W 071°25'  

Dump ship's entire track history